Central Square, New York
Current Conditions -  °F | °C
As of 10:54 AM on Friday 21 Nov 2014 (Local Time) from KSYR Reporting Station
Light Snow Light Snow  
Wind Chill: 17°   Ceiling: 3600
Heat Index: 28°   Visibility: 10mi
Dew Point: 15°   Wind: 15mph
Humidity: 58%   Direction: 310°NW
Pressure: 30.32"   Gusts: NA
Location:  43.29°N, 76.15°W
Report Text: KSYR 211554Z 31013KT 10SM -SN BKN036 BKN044 M02/M09 A3032 RMK AO2 SLP270 SNB42 BKN044 V OVC P0000 T10221094 $
Loading
Personal Weather Stations






























Interactive Weather Map New forecast layout! Learn more

10-Day Weather Forecast

Advertisements
Track Severe Weather on mobile